sensor_id;sensor_type;location;lat;lon;timestamp;pressure;altitude;pressure_sealevel;temperature;humidity
29371;BME280;16357;52.188;7.838;2023-01-19T00:00:38;99267.19;;;3.56;64.13
29371;BME280;16357;52.188;7.838;2023-01-19T00:03:05;99263.56;;;3.57;64.22
29371;BME280;16357;52.188;7.838;2023-01-19T00:05:31;99266.91;;;3.59;64.60
29371;BME280;16357;52.188;7.838;2023-01-19T00:07:58;99265.78;;;3.61;64.38
29371;BME280;16357;52.188;7.838;2023-01-19T00:10:42;99264.47;;;3.65;64.80
29371;BME280;16357;52.188;7.838;2023-01-19T00:13:08;99266.00;;;3.68;64.96
29371;BME280;16357;52.188;7.838;2023-01-19T00:15:35;99278.81;;;3.72;64.94
29371;BME280;16357;52.188;7.838;2023-01-19T00:18:01;99271.56;;;3.74;64.68
29371;BME280;16357;52.188;7.838;2023-01-19T00:20:28;99274.72;;;3.78;64.58
29371;BME280;16357;52.188;7.838;2023-01-19T00:22:57;99273.47;;;3.82;64.50
29371;BME280;16357;52.188;7.838;2023-01-19T00:25:24;99273.16;;;3.85;64.61
29371;BME280;16357;52.188;7.838;2023-01-19T00:27:50;99283.47;;;3.88;64.55
29371;BME280;16357;52.188;7.838;2023-01-19T00:30:17;99276.88;;;3.92;64.40
29371;BME280;16357;52.188;7.838;2023-01-19T00:32:43;99280.06;;;3.96;64.37
29371;BME280;16357;52.188;7.838;2023-01-19T00:35:09;99293.16;;;3.97;64.40
29371;BME280;16357;52.188;7.838;2023-01-19T00:37:36;99276.13;;;4.00;64.44
29371;BME280;16357;52.188;7.838;2023-01-19T00:40:03;99285.59;;;4.03;64.59
29371;BME280;16357;52.188;7.838;2023-01-19T00:42:29;99289.75;;;4.05;64.37
29371;BME280;16357;52.188;7.838;2023-01-19T00:45:12;99278.19;;;4.06;64.25
29371;BME280;16357;52.188;7.838;2023-01-19T00:47:39;99284.19;;;4.08;64.59
29371;BME280;16357;52.188;7.838;2023-01-19T00:50:07;99289.31;;;4.10;64.19
29371;BME280;16357;52.188;7.838;2023-01-19T00:52:34;99290.00;;;4.12;64.49
29371;BME280;16357;52.188;7.838;2023-01-19T00:55:00;99283.69;;;4.13;64.20
29371;BME280;16357;52.188;7.838;2023-01-19T00:57:27;99281.91;;;4.13;64.10
29371;BME280;16357;52.188;7.838;2023-01-19T00:59:54;99274.78;;;4.14;64.71
29371;BME280;16357;52.188;7.838;2023-01-19T01:02:21;99287.88;;;4.15;64.54
29371;BME280;16357;52.188;7.838;2023-01-19T01:04:47;99281.59;;;4.16;64.34
29371;BME280;16357;52.188;7.838;2023-01-19T01:07:14;99260.19;;;4.18;64.61
29371;BME280;16357;52.188;7.838;2023-01-19T01:09:40;99270.69;;;4.20;64.46
29371;BME280;16357;52.188;7.838;2023-01-19T01:12:06;99277.66;;;4.21;64.38
29371;BME280;16357;52.188;7.838;2023-01-19T01:14:33;99267.84;;;4.21;64.26
29371;BME280;16357;52.188;7.838;2023-01-19T01:16:59;99273.84;;;4.23;64.21
29371;BME280;16357;52.188;7.838;2023-01-19T01:19:26;99280.97;;;4.23;64.40
29371;BME280;16357;52.188;7.838;2023-01-19T01:21:52;99277.34;;;4.24;64.47
29371;BME280;16357;52.188;7.838;2023-01-19T01:24:19;99282.50;;;4.25;64.70
29371;BME280;16357;52.188;7.838;2023-01-19T01:26:45;99275.38;;;4.26;64.72
29371;BME280;16357;52.188;7.838;2023-01-19T01:29:12;99285.84;;;4.27;64.61
29371;BME280;16357;52.188;7.838;2023-01-19T01:31:38;99282.19;;;4.28;64.39
29371;BME280;16357;52.188;7.838;2023-01-19T01:34:05;99275.91;;;4.29;64.76
29371;BME280;16357;52.188;7.838;2023-01-19T01:36:31;99286.38;;;4.31;64.46
29371;BME280;16357;52.188;7.838;2023-01-19T01:38:58;99280.09;;;4.32;64.51
29371;BME280;16357;52.188;7.838;2023-01-19T01:41:25;99271.97;;;4.33;64.30
29371;BME280;16357;52.188;7.838;2023-01-19T01:43:54;99277.25;;;4.33;64.62
29371;BME280;16357;52.188;7.838;2023-01-19T01:46:26;99281.56;;;4.34;64.61
29371;BME280;16357;52.188;7.838;2023-01-19T01:49:14;99284.09;;;4.36;64.59
29371;BME280;16357;52.188;7.838;2023-01-19T01:51:45;99268.84;;;4.38;64.49
29371;BME280;16357;52.188;7.838;2023-01-19T01:56:50;99276.66;;;4.39;64.74
29371;BME280;16357;52.188;7.838;2023-01-19T01:59:31;99271.34;;;4.39;64.44
29371;BME280;16357;52.188;7.838;2023-01-19T02:02:08;99282.81;;;4.40;64.74
29371;BME280;16357;52.188;7.838;2023-01-19T02:04:58;99284.47;;;4.41;64.54
29371;BME280;16357;52.188;7.838;2023-01-19T02:07:34;99275.69;;;4.40;64.38
29371;BME280;16357;52.188;7.838;2023-01-19T02:10:21;99277.50;;;4.40;64.64
29371;BME280;16357;52.188;7.838;2023-01-19T02:13:07;99278.31;;;4.40;64.92
29371;BME280;16357;52.188;7.838;2023-01-19T02:15:51;99273.03;;;4.40;64.66
29371;BME280;16357;52.188;7.838;2023-01-19T02:18:20;99274.84;;;4.40;64.68
29371;BME280;16357;52.188;7.838;2023-01-19T02:21:10;99270.38;;;4.40;64.86
29371;BME280;16357;52.188;7.838;2023-01-19T02:26:12;99281.81;;;4.41;64.90
29371;BME280;16357;52.188;7.838;2023-01-19T02:28:43;99286.97;;;4.43;64.85
29371;BME280;16357;52.188;7.838;2023-01-19T02:31:11;99277.31;;;4.42;65.22
29371;BME280;16357;52.188;7.838;2023-01-19T02:33:38;99278.03;;;4.44;65.06
29371;BME280;16357;52.188;7.838;2023-01-19T02:36:05;99284.16;;;4.44;65.06
29371;BME280;16357;52.188;7.838;2023-01-19T02:38:34;99278.72;;;4.46;64.99
29371;BME280;16357;52.188;7.838;2023-01-19T02:41:02;99281.19;;;4.47;65.00
29371;BME280;16357;52.188;7.838;2023-01-19T02:43:29;99279.41;;;4.48;65.21
29371;BME280;16357;52.188;7.838;2023-01-19T02:45:57;99282.88;;;4.48;65.28
29371;BME280;16357;52.188;7.838;2023-01-19T02:48:24;99280.22;;;4.48;65.20
29371;BME280;16357;52.188;7.838;2023-01-19T02:50:53;99278.25;;;4.50;65.05
29371;BME280;16357;52.188;7.838;2023-01-19T03:01:38;99265.63;;;4.52;65.04
29371;BME280;16357;52.188;7.838;2023-01-19T03:07:10;99267.47;;;4.52;64.95
29371;BME280;16357;52.188;7.838;2023-01-19T03:09:55;99268.47;;;4.51;64.95
29371;BME280;16357;52.188;7.838;2023-01-19T03:12:31;99260.63;;;4.49;64.97
29371;BME280;16357;52.188;7.838;2023-01-19T03:15:08;99256.47;;;4.47;65.18
29371;BME280;16357;52.188;7.838;2023-01-19T03:17:39;99260.13;;;4.46;65.18
29371;BME280;16357;52.188;7.838;2023-01-19T03:20:08;99263.75;;;4.45;65.47
29371;BME280;16357;52.188;7.838;2023-01-19T03:22:38;99262.09;;;4.44;65.75
29371;BME280;16357;52.188;7.838;2023-01-19T03:25:06;99262.09;;;4.44;65.61
29371;BME280;16357;52.188;7.838;2023-01-19T03:27:38;99262.09;;;4.44;65.36
29371;BME280;16357;52.188;7.838;2023-01-19T03:30:15;99256.78;;;4.44;65.49
29371;BME280;16357;52.188;7.838;2023-01-19T03:32:55;99251.59;;;4.42;65.43
29371;BME280;16357;52.188;7.838;2023-01-19T03:35:28;99255.94;;;4.43;65.86
29371;BME280;16357;52.188;7.838;2023-01-19T03:37:57;99261.25;;;4.43;65.60
29371;BME280;16357;52.188;7.838;2023-01-19T03:40:26;99263.09;;;4.43;65.99
29371;BME280;16357;52.188;7.838;2023-01-19T03:42:54;99257.78;;;4.43;65.70
29371;BME280;16357;52.188;7.838;2023-01-19T03:45:22;99260.44;;;4.43;66.08
29371;BME280;16357;52.188;7.838;2023-01-19T03:47:49;99262.09;;;4.44;65.77
29371;BME280;16357;52.188;7.838;2023-01-19T03:50:28;99266.41;;;4.45;66.16
29371;BME280;16357;52.188;7.838;2023-01-19T03:53:05;99261.09;;;4.45;65.76
29371;BME280;16357;52.188;7.838;2023-01-19T03:55:33;99260.44;;;4.43;66.07
29371;BME280;16357;52.188;7.838;2023-01-19T03:58:00;99262.91;;;4.44;65.85
29371;BME280;16357;52.188;7.838;2023-01-19T04:00:26;99262.91;;;4.44;66.03
29371;BME280;16357;52.188;7.838;2023-01-19T04:02:52;99265.75;;;4.43;65.86
29371;BME280;16357;52.188;7.838;2023-01-19T04:05:19;99262.91;;;4.44;66.21
29371;BME280;16357;52.188;7.838;2023-01-19T04:07:49;99263.75;;;4.45;66.21
29371;BME280;16357;52.188;7.838;2023-01-19T04:10:17;99261.09;;;4.45;66.28
29371;BME280;16357;52.188;7.838;2023-01-19T04:12:44;99255.78;;;4.45;66.10
29371;BME280;16357;52.188;7.838;2023-01-19T04:15:11;99257.59;;;4.44;65.93
29371;BME280;16357;52.188;7.838;2023-01-19T04:17:38;99262.09;;;4.44;66.05
29371;BME280;16357;52.188;7.838;2023-01-19T04:20:06;99261.09;;;4.45;66.40
29371;BME280;16357;52.188;7.838;2023-01-19T04:22:33;99262.91;;;4.44;66.37
29371;BME280;16357;52.188;7.838;2023-01-19T04:25:00;99255.78;;;4.45;66.10
29371;BME280;16357;52.188;7.838;2023-01-19T04:27:26;99253.97;;;4.45;66.01
29371;BME280;16357;52.188;7.838;2023-01-19T04:29:53;99253.97;;;4.45;66.33
29371;BME280;16357;52.188;7.838;2023-01-19T04:32:20;99252.16;;;4.46;66.11
29371;BME280;16357;52.188;7.838;2023-01-19T04:34:46;99251.16;;;4.47;66.41
29371;BME280;16357;52.188;7.838;2023-01-19T04:37:13;99249.19;;;4.49;66.11
29371;BME280;16357;52.188;7.838;2023-01-19T04:39:39;99250.00;;;4.49;66.05
29371;BME280;16357;52.188;7.838;2023-01-19T04:42:06;99256.16;;;4.50;66.22
29371;BME280;16357;52.188;7.838;2023-01-19T04:44:32;99253.19;;;4.53;66.39
29371;BME280;16357;52.188;7.838;2023-01-19T04:46:59;99251.53;;;4.52;66.24
29371;BME280;16357;52.188;7.838;2023-01-19T04:49:26;99251.38;;;4.53;66.33
29371;BME280;16357;52.188;7.838;2023-01-19T04:51:53;99250.38;;;4.54;66.10
29371;BME280;16357;52.188;7.838;2023-01-19T04:54:20;99253.03;;;4.54;66.30
29371;BME280;16357;52.188;7.838;2023-01-19T04:56:46;99248.56;;;4.55;65.85
29371;BME280;16357;52.188;7.838;2023-01-19T04:59:13;99249.38;;;4.55;66.17
29371;BME280;16357;52.188;7.838;2023-01-19T05:01:39;99258.22;;;4.56;65.98
29371;BME280;16357;52.188;7.838;2023-01-19T05:04:06;99247.59;;;4.56;66.12
29371;BME280;16357;52.188;7.838;2023-01-19T05:06:33;99238.75;;;4.55;65.83
29371;BME280;16357;52.188;7.838;2023-01-19T05:09:00;99250.25;;;4.56;66.18
29371;BME280;16357;52.188;7.838;2023-01-19T05:11:26;99249.38;;;4.55;66.20
29371;BME280;16357;52.188;7.838;2023-01-19T05:13:52;99254.69;;;4.55;65.92
29371;BME280;16357;52.188;7.838;2023-01-19T05:16:19;99263.53;;;4.56;66.41
29371;BME280;16357;52.188;7.838;2023-01-19T05:18:45;99253.88;;;4.55;66.17
29371;BME280;16357;52.188;7.838;2023-01-19T05:21:12;99254.88;;;4.54;66.20
29371;BME280;16357;52.188;7.838;2023-01-19T05:23:38;99255.84;;;4.53;66.09
29371;BME280;16357;52.188;7.838;2023-01-19T05:26:04;99247.88;;;4.53;66.22
29371;BME280;16357;52.188;7.838;2023-01-19T05:28:31;99243.56;;;4.52;65.91
29371;BME280;16357;52.188;7.838;2023-01-19T05:30:58;99253.34;;;4.51;66.14
29371;BME280;16357;52.188;7.838;2023-01-19T05:33:25;99249.88;;;4.51;66.28
29371;BME280;16357;52.188;7.838;2023-01-19T05:35:52;99245.53;;;4.50;66.04
29371;BME280;16357;52.188;7.838;2023-01-19T05:38:20;99242.88;;;4.50;65.97
29371;BME280;16357;52.188;7.838;2023-01-19T05:41:00;99243.88;;;4.49;66.14
29371;BME280;16357;52.188;7.838;2023-01-19T05:43:26;99243.19;;;4.47;65.95
29371;BME280;16357;52.188;7.838;2023-01-19T05:45:53;99244.19;;;4.46;65.86
29371;BME280;16357;52.188;7.838;2023-01-19T05:48:19;99247.16;;;4.43;65.96
29371;BME280;16357;52.188;7.838;2023-01-19T05:50:45;99248.13;;;4.42;66.13
29371;BME280;16357;52.188;7.838;2023-01-19T05:53:14;99257.91;;;4.41;66.22
29371;BME280;16357;52.188;7.838;2023-01-19T05:55:41;99248.28;;;4.40;66.41
29371;BME280;16357;52.188;7.838;2023-01-19T05:58:08;99250.94;;;4.40;66.31
29371;BME280;16357;52.188;7.838;2023-01-19T06:00:34;99250.94;;;4.40;66.26
29371;BME280;16357;52.188;7.838;2023-01-19T06:03:01;99255.41;;;4.39;66.17
29371;BME280;16357;52.188;7.838;2023-01-19T06:05:28;99255.56;;;4.38;66.15
29371;BME280;16357;52.188;7.838;2023-01-19T06:07:55;99257.53;;;4.36;66.22
29371;BME280;16357;52.188;7.838;2023-01-19T06:10:22;99256.84;;;4.34;65.97
29371;BME280;16357;52.188;7.838;2023-01-19T06:12:48;99257.03;;;4.32;66.21
29371;BME280;16357;52.188;7.838;2023-01-19T06:15:15;99266.13;;;4.30;66.19
29371;BME280;16357;52.188;7.838;2023-01-19T06:17:42;99267.09;;;4.29;66.42
29371;BME280;16357;52.188;7.838;2023-01-19T06:20:09;99271.56;;;4.28;66.33
29371;BME280;16357;52.188;7.838;2023-01-19T06:22:35;99270.06;;;4.26;66.45
29371;BME280;16357;52.188;7.838;2023-01-19T06:25:02;99274.53;;;4.25;66.52
29371;BME280;16357;52.188;7.838;2023-01-19T06:27:28;99263.94;;;4.25;66.23
29371;BME280;16357;52.188;7.838;2023-01-19T06:29:55;99270.88;;;4.26;66.43
29371;BME280;16357;52.188;7.838;2023-01-19T06:32:21;99271.88;;;4.25;66.54
29371;BME280;16357;52.188;7.838;2023-01-19T06:34:47;99273.53;;;4.26;66.22
29371;BME280;16357;52.188;7.838;2023-01-19T06:37:14;99284.16;;;4.26;66.20
29371;BME280;16357;52.188;7.838;2023-01-19T06:39:41;99290.16;;;4.28;66.45
29371;BME280;16357;52.188;7.838;2023-01-19T06:42:10;99284.84;;;4.28;66.27
29371;BME280;16357;52.188;7.838;2023-01-19T06:44:36;99285.84;;;4.27;66.69
29371;BME280;16357;52.188;7.838;2023-01-19T06:47:03;99285.69;;;4.29;66.50
29371;BME280;16357;52.188;7.838;2023-01-19T06:49:41;99295.16;;;4.31;66.39
29371;BME280;16357;52.188;7.838;2023-01-19T06:52:11;99298.50;;;4.33;66.64
29371;BME280;16357;52.188;7.838;2023-01-19T06:54:40;99301.03;;;4.35;66.41
29371;BME280;16357;52.188;7.838;2023-01-19T06:57:10;99303.50;;;4.36;66.25
29371;BME280;16357;52.188;7.838;2023-01-19T06:59:37;99312.16;;;4.38;65.96
29371;BME280;16357;52.188;7.838;2023-01-19T07:02:04;99318.28;;;4.39;66.19
29371;BME280;16357;52.188;7.838;2023-01-19T07:04:50;99322.78;;;4.38;66.44
29371;BME280;16357;52.188;7.838;2023-01-19T07:07:17;99326.25;;;4.39;66.29
29371;BME280;16357;52.188;7.838;2023-01-19T07:09:43;99321.78;;;4.39;66.17
29371;BME280;16357;52.188;7.838;2023-01-19T07:12:09;99322.78;;;4.38;66.16
29371;BME280;16357;52.188;7.838;2023-01-19T07:14:36;99328.91;;;4.39;66.08
29371;BME280;16357;52.188;7.838;2023-01-19T07:17:05;99329.75;;;4.39;66.38
29371;BME280;16357;52.188;7.838;2023-01-19T07:19:32;99331.56;;;4.39;66.30
29371;BME280;16357;52.188;7.838;2023-01-19T07:22:00;99343.19;;;4.38;66.14
29371;BME280;16357;52.188;7.838;2023-01-19T07:24:27;99346.66;;;4.38;66.45
29371;BME280;16357;52.188;7.838;2023-01-19T07:26:55;99345.84;;;4.38;66.32
29371;BME280;16357;52.188;7.838;2023-01-19T07:29:22;99339.69;;;4.37;66.52
29371;BME280;16357;52.188;7.838;2023-01-19T07:31:48;99350.97;;;4.39;66.31
29371;BME280;16357;52.188;7.838;2023-01-19T07:34:15;99350.16;;;4.39;66.46
29371;BME280;16357;52.188;7.838;2023-01-19T07:36:42;99352.66;;;4.40;66.50
29371;BME280;16357;52.188;7.838;2023-01-19T07:39:09;99357.97;;;4.40;66.26
29371;BME280;16357;52.188;7.838;2023-01-19T07:41:35;99370.94;;;4.44;66.25
29371;BME280;16357;52.188;7.838;2023-01-19T07:44:02;99365.63;;;4.44;66.25
29371;BME280;16357;52.188;7.838;2023-01-19T07:46:28;99377.78;;;4.46;66.46
29371;BME280;16357;52.188;7.838;2023-01-19T07:48:54;99382.09;;;4.47;66.42
29371;BME280;16357;52.188;7.838;2023-01-19T07:51:21;99385.59;;;4.48;66.18
29371;BME280;16357;52.188;7.838;2023-01-19T07:53:49;99399.53;;;4.50;66.19
29371;BME280;16357;52.188;7.838;2023-01-19T07:56:15;99396.88;;;4.50;66.31
29371;BME280;16357;52.188;7.838;2023-01-19T07:58:42;99394.22;;;4.50;66.10
29371;BME280;16357;52.188;7.838;2023-01-19T08:01:12;99408.38;;;4.50;66.00
29371;BME280;16357;52.188;7.838;2023-01-19T08:03:38;99411.03;;;4.50;66.14
29371;BME280;16357;52.188;7.838;2023-01-19T08:06:05;99417.16;;;4.51;66.45
29371;BME280;16357;52.188;7.838;2023-01-19T08:08:32;99424.13;;;4.52;66.34
29371;BME280;16357;52.188;7.838;2023-01-19T08:10:59;99424.97;;;4.52;66.37
29371;BME280;16357;52.188;7.838;2023-01-19T08:13:25;99421.47;;;4.52;66.21
29371;BME280;16357;52.188;7.838;2023-01-19T08:15:52;99430.28;;;4.52;65.99
29371;BME280;16357;52.188;7.838;2023-01-19T08:18:19;99442.59;;;4.53;65.99
29371;BME280;16357;52.188;7.838;2023-01-19T08:20:46;99442.41;;;4.55;65.92
29371;BME280;16357;52.188;7.838;2023-01-19T08:23:12;99450.38;;;4.55;66.05
29371;BME280;16357;52.188;7.838;2023-01-19T08:25:41;99458.06;;;4.58;66.36
29371;BME280;16357;52.188;7.838;2023-01-19T08:28:11;99467.72;;;4.59;66.36
29371;BME280;16357;52.188;7.838;2023-01-19T08:30:41;99465.75;;;4.61;66.18
29371;BME280;16357;52.188;7.838;2023-01-19T08:33:11;99471.72;;;4.63;66.49
29371;BME280;16357;52.188;7.838;2023-01-19T08:35:41;99475.91;;;4.66;66.72
29371;BME280;16357;52.188;7.838;2023-01-19T08:38:09;99474.94;;;4.67;66.52
29371;BME280;16357;52.188;7.838;2023-01-19T08:40:37;99479.13;;;4.69;66.51
29371;BME280;16357;52.188;7.838;2023-01-19T08:43:06;99483.28;;;4.72;66.15
29371;BME280;16357;52.188;7.838;2023-01-19T08:45:37;99487.47;;;4.74;66.47
29371;BME280;16357;52.188;7.838;2023-01-19T08:48:06;99491.78;;;4.75;66.41
29371;BME280;16357;52.188;7.838;2023-01-19T08:50:33;99497.78;;;4.77;66.14
29371;BME280;16357;52.188;7.838;2023-01-19T08:53:01;99504.47;;;4.81;66.37
29371;BME280;16357;52.188;7.838;2023-01-19T08:55:29;99502.50;;;4.83;66.66
29371;BME280;16357;52.188;7.838;2023-01-19T08:57:56;99497.72;;;4.87;66.73
29371;BME280;16357;52.188;7.838;2023-01-19T09:00:25;99503.56;;;4.91;66.59
29371;BME280;16357;52.188;7.838;2023-01-19T09:02:53;99505.91;;;4.94;66.32
29371;BME280;16357;52.188;7.838;2023-01-19T09:05:19;99512.75;;;4.96;66.41
29371;BME280;16357;52.188;7.838;2023-01-19T09:07:46;99525.59;;;5.01;66.15
29371;BME280;16357;52.188;7.838;2023-01-19T09:10:14;99519.97;;;5.04;66.45
29371;BME280;16357;52.188;7.838;2023-01-19T09:12:41;99521.66;;;5.05;66.26
29371;BME280;16357;52.188;7.838;2023-01-19T09:15:09;99524.84;;;5.09;66.31
29371;BME280;16357;52.188;7.838;2023-01-19T09:17:39;99530.00;;;5.10;66.80
29371;BME280;16357;52.188;7.838;2023-01-19T09:20:07;99533.34;;;5.12;66.56
29371;BME280;16357;52.188;7.838;2023-01-19T09:22:34;99543.69;;;5.15;66.30
29371;BME280;16357;52.188;7.838;2023-01-19T09:25:00;99542.53;;;5.18;66.36
29371;BME280;16357;52.188;7.838;2023-01-19T09:27:27;99545.06;;;5.19;66.46
29371;BME280;16357;52.188;7.838;2023-01-19T09:29:54;99544.06;;;5.20;66.21
29371;BME280;16357;52.188;7.838;2023-01-19T09:32:23;99546.41;;;5.23;66.44
29371;BME280;16357;52.188;7.838;2023-01-19T09:34:49;99549.94;;;5.24;66.28
29371;BME280;16357;52.188;7.838;2023-01-19T09:37:16;99557.75;;;5.25;66.69
29371;BME280;16357;52.188;7.838;2023-01-19T09:39:42;99561.09;;;5.27;66.79
29371;BME280;16357;52.188;7.838;2023-01-19T09:45:03;99577.56;;;5.31;66.60
29371;BME280;16357;52.188;7.838;2023-01-19T09:47:33;99575.72;;;5.32;66.67
29371;BME280;16357;52.188;7.838;2023-01-19T09:50:04;99582.75;;;5.33;66.38
29371;BME280;16357;52.188;7.838;2023-01-19T09:52:35;99589.72;;;5.34;66.96
29371;BME280;16357;52.188;7.838;2023-01-19T09:55:18;99587.91;;;5.34;66.62
29371;BME280;16357;52.188;7.838;2023-01-19T09:57:45;99587.75;;;5.36;66.77
29371;BME280;16357;52.188;7.838;2023-01-19T10:00:17;99599.09;;;5.38;66.93
29371;BME280;16357;52.188;7.838;2023-01-19T10:02:52;99594.47;;;5.40;66.56
29371;BME280;16357;52.188;7.838;2023-01-19T10:08:11;99601.97;;;5.44;66.89
29371;BME280;16357;52.188;7.838;2023-01-19T10:10:44;99615.13;;;5.46;66.64
29371;BME280;16357;52.188;7.838;2023-01-19T10:18:31;99629.09;;;5.48;66.57
29371;BME280;16357;52.188;7.838;2023-01-19T10:21:15;99620.00;;;5.50;67.10
29371;BME280;16357;52.188;7.838;2023-01-19T10:23:50;99625.97;;;5.53;66.96
29371;BME280;16357;52.188;7.838;2023-01-19T10:26:25;99634.66;;;5.55;67.06
29371;BME280;16357;52.188;7.838;2023-01-19T10:28:54;99630.53;;;5.60;66.62
29371;BME280;16357;52.188;7.838;2023-01-19T10:31:23;99634.03;;;5.61;66.77
29371;BME280;16357;52.188;7.838;2023-01-19T10:33:50;99638.53;;;5.60;66.81
29371;BME280;16357;52.188;7.838;2023-01-19T10:36:20;99641.88;;;5.62;66.63
29371;BME280;16357;52.188;7.838;2023-01-19T10:38:49;99645.22;;;5.64;66.90
29371;BME280;16357;52.188;7.838;2023-01-19T10:41:39;99640.59;;;5.66;66.63
29371;BME280;16357;52.188;7.838;2023-01-19T10:44:04;99645.59;;;5.69;67.07
29371;BME280;16357;52.188;7.838;2023-01-19T10:46:39;99648.78;;;5.73;66.70
29371;BME280;16357;52.188;7.838;2023-01-19T10:49:26;99644.84;;;5.77;66.63
29371;BME280;16357;52.188;7.838;2023-01-19T10:51:55;99657.00;;;5.80;66.79
29371;BME280;16357;52.188;7.838;2023-01-19T10:54:23;99648.72;;;5.83;66.35
29371;BME280;16357;52.188;7.838;2023-01-19T10:57:35;99659.88;;;5.86;66.53
29371;BME280;16357;52.188;7.838;2023-01-19T11:02:59;99653.97;;;5.92;66.78
29371;BME280;16357;52.188;7.838;2023-01-19T11:05:31;99659.00;;;5.96;66.48
29371;BME280;16357;52.188;7.838;2023-01-19T11:07:58;99657.88;;;5.98;66.98
29371;BME280;16357;52.188;7.838;2023-01-19T11:10:28;99662.88;;;6.01;66.71
29371;BME280;16357;52.188;7.838;2023-01-19T11:13:02;99661.75;;;6.04;67.07
29371;BME280;16357;52.188;7.838;2023-01-19T11:15:56;99668.28;;;6.09;67.05
29371;BME280;16357;52.188;7.838;2023-01-19T11:18:29;99668.34;;;6.18;67.38
29371;BME280;16357;52.188;7.838;2023-01-19T11:20:58;99670.22;;;6.25;67.60
29371;BME280;16357;52.188;7.838;2023-01-19T11:23:30;99674.59;;;6.34;67.77
29371;BME280;16357;52.188;7.838;2023-01-19T11:26:00;99666.53;;;6.44;67.64
29371;BME280;16357;52.188;7.838;2023-01-19T11:28:32;99669.09;;;6.54;67.02
29371;BME280;16357;52.188;7.838;2023-01-19T11:36:31;99655.78;;;6.88;67.05
29371;BME280;16357;52.188;7.838;2023-01-19T11:39:21;99660.69;;;7.01;66.68
29371;BME280;16357;52.188;7.838;2023-01-19T11:41:53;99655.19;;;7.11;66.80
29371;BME280;16357;52.188;7.838;2023-01-19T11:44:23;99653.41;;;7.19;66.64
29371;BME280;16357;52.188;7.838;2023-01-19T11:46:56;99652.28;;;7.30;66.30
29371;BME280;16357;52.188;7.838;2023-01-19T11:49:28;99652.31;;;7.38;66.17
29371;BME280;16357;52.188;7.838;2023-01-19T11:54:53;99657.69;;;7.55;65.25
29371;BME280;16357;52.188;7.838;2023-01-19T11:57:21;99647.34;;;7.60;64.78
29371;BME280;16357;52.188;7.838;2023-01-19T11:59:48;99656.72;;;7.64;64.58
29371;BME280;16357;52.188;7.838;2023-01-19T12:02:29;99653.53;;;7.68;64.73
29371;BME280;16357;52.188;7.838;2023-01-19T12:04:59;99645.22;;;7.72;64.65
29371;BME280;16357;52.188;7.838;2023-01-19T12:07:32;99667.06;;;7.75;64.64
29371;BME280;16357;52.188;7.838;2023-01-19T12:10:27;99663.03;;;7.79;64.58
29371;BME280;16357;52.188;7.838;2023-01-19T12:12:55;99664.41;;;7.83;64.06
29371;BME280;16357;52.188;7.838;2023-01-19T12:15:37;99663.91;;;7.88;64.06
29371;BME280;16357;52.188;7.838;2023-01-19T12:18:14;99660.91;;;7.91;64.22
29371;BME280;16357;52.188;7.838;2023-01-19T12:20:46;99658.72;;;7.95;63.93
29371;BME280;16357;52.188;7.838;2023-01-19T12:28:28;99665.41;;;8.07;64.18
29371;BME280;16357;52.188;7.838;2023-01-19T12:30:58;99664.09;;;8.11;63.81
29371;BME280;16357;52.188;7.838;2023-01-19T12:35:58;99661.72;;;8.16;63.24
29371;BME280;16357;52.188;7.838;2023-01-19T12:46:57;99677.44;;;8.19;62.67
29371;BME280;16357;52.188;7.838;2023-01-19T12:54:55;99683.78;;;8.18;62.58
29371;BME280;16357;52.188;7.838;2023-01-19T12:57:36;99678.28;;;8.20;62.73
29371;BME280;16357;52.188;7.838;2023-01-19T13:02:54;99678.44;;;8.26;62.72
29371;BME280;16357;52.188;7.838;2023-01-19T13:18:56;99695.69;;;8.40;62.16
29371;BME280;16357;52.188;7.838;2023-01-19T13:21:47;99697.66;;;8.46;62.32
29371;BME280;16357;52.188;7.838;2023-01-19T13:24:16;99702.50;;;8.51;61.96
29371;BME280;16357;52.188;7.838;2023-01-19T13:29:30;99703.50;;;8.58;61.46
29371;BME280;16357;52.188;7.838;2023-01-19T13:32:03;99697.81;;;8.61;61.42
29371;BME280;16357;52.188;7.838;2023-01-19T13:34:40;99700.16;;;8.64;61.49
29371;BME280;16357;52.188;7.838;2023-01-19T13:37:16;99701.81;;;8.65;60.45
29371;BME280;16357;52.188;7.838;2023-01-19T13:39:44;99702.66;;;8.66;61.04
29371;BME280;16357;52.188;7.838;2023-01-19T13:42:34;99704.16;;;8.68;61.72
29371;BME280;16357;52.188;7.838;2023-01-19T13:45:07;99707.34;;;8.72;61.47
29371;BME280;16357;52.188;7.838;2023-01-19T13:47:44;99710.50;;;8.75;61.04
29371;BME280;16357;52.188;7.838;2023-01-19T13:50:32;99712.66;;;8.80;61.03
29371;BME280;16357;52.188;7.838;2023-01-19T13:52:59;99714.16;;;8.83;59.54
29371;BME280;16357;52.188;7.838;2023-01-19T13:55:28;99720.50;;;8.82;59.22
29371;BME280;16357;52.188;7.838;2023-01-19T13:57:55;99724.53;;;8.77;58.96
29371;BME280;16357;52.188;7.838;2023-01-19T14:00:24;99726.06;;;8.72;59.04
29371;BME280;16357;52.188;7.838;2023-01-19T14:03:00;99731.22;;;8.65;58.48
29371;BME280;16357;52.188;7.838;2023-01-19T14:05:36;99738.09;;;8.60;59.09
29371;BME280;16357;52.188;7.838;2023-01-19T14:10:46;99746.78;;;8.45;59.25
29371;BME280;16357;52.188;7.838;2023-01-19T14:13:35;99747.75;;;8.36;59.59
29371;BME280;16357;52.188;7.838;2023-01-19T14:16:15;99755.41;;;8.31;59.66
29371;BME280;16357;52.188;7.838;2023-01-19T14:18:42;99754.25;;;8.25;59.43
29371;BME280;16357;52.188;7.838;2023-01-19T14:21:13;99759.25;;;8.20;59.68
29371;BME280;16357;52.188;7.838;2023-01-19T14:24:08;99756.41;;;8.13;59.54
29371;BME280;16357;52.188;7.838;2023-01-19T14:29:22;99760.56;;;8.00;59.56
29371;BME280;16357;52.188;7.838;2023-01-19T14:37:44;99777.69;;;7.73;59.45
29371;BME280;16357;52.188;7.838;2023-01-19T14:42:52;99770.78;;;7.54;59.76
29371;BME280;16357;52.188;7.838;2023-01-19T14:45:27;99772.56;;;7.45;60.27
29371;BME280;16357;52.188;7.838;2023-01-19T14:48:03;99771.53;;;7.38;60.57
29371;BME280;16357;52.188;7.838;2023-01-19T14:50:35;99779.34;;;7.31;60.45
29371;BME280;16357;52.188;7.838;2023-01-19T14:53:24;99784.47;;;7.24;60.50
29371;BME280;16357;52.188;7.838;2023-01-19T14:55:55;99787.09;;;7.16;60.59
29371;BME280;16357;52.188;7.838;2023-01-19T14:58:26;99791.22;;;7.11;60.57